createdAt,value
2018-07-21T00:00:40.685Z,3.33
2018-07-21T00:03:15.896Z,2.90
2018-07-21T00:05:51.187Z,2.93
2018-07-21T00:08:26.286Z,3.40
2018-07-21T00:11:01.400Z,3.27
2018-07-21T00:13:36.578Z,2.97
2018-07-21T00:16:11.741Z,3.67
2018-07-21T00:18:46.843Z,3.57
2018-07-21T00:21:21.941Z,3.20
2018-07-21T00:23:57.030Z,4.00
2018-07-21T00:26:37.577Z,2.97
2018-07-21T00:29:12.648Z,2.77
2018-07-21T00:31:48.749Z,3.33
2018-07-21T00:34:23.770Z,3.00
2018-07-21T00:36:58.782Z,2.90
2018-07-21T00:39:34.063Z,3.00
2018-07-21T00:42:09.107Z,3.60
2018-07-21T00:44:44.195Z,3.13
2018-07-21T00:47:19.203Z,2.97
2018-07-21T00:49:54.235Z,2.90
2018-07-21T00:52:29.503Z,3.23
2018-07-21T00:55:05.014Z,3.30
2018-07-21T00:57:40.158Z,2.80
2018-07-21T01:00:15.078Z,3.00
2018-07-21T01:02:50.131Z,3.00
2018-07-21T01:05:25.227Z,2.60
2018-07-21T01:08:00.420Z,3.07
2018-07-21T01:10:35.439Z,2.93
2018-07-21T01:13:10.474Z,2.83
2018-07-21T01:15:45.568Z,3.37
2018-07-21T01:18:20.598Z,2.70
2018-07-21T01:20:55.645Z,3.20
2018-07-21T01:23:30.715Z,2.97
2018-07-21T01:26:05.871Z,2.70
2018-07-21T01:28:40.688Z,2.83
2018-07-21T01:31:15.600Z,3.20
2018-07-21T01:33:50.580Z,3.07
2018-07-21T01:36:26.462Z,2.80
2018-07-21T01:39:01.574Z,2.97
2018-07-21T01:41:36.687Z,2.93
2018-07-21T01:44:11.793Z,2.90
2018-07-21T01:46:46.912Z,2.93
2018-07-21T01:49:21.978Z,2.67
2018-07-21T01:51:57.180Z,2.63
2018-07-21T01:54:32.360Z,2.53
2018-07-21T01:57:07.394Z,3.20
2018-07-21T01:59:42.758Z,3.03
2018-07-21T02:02:17.985Z,2.80
2018-07-21T02:04:53.128Z,3.10
2018-07-21T02:07:28.405Z,2.73
2018-07-21T02:10:03.508Z,3.10
2018-07-21T02:12:38.558Z,2.90
2018-07-21T02:15:13.510Z,2.50
2018-07-21T02:17:48.721Z,2.93
2018-07-21T02:20:23.950Z,3.00
2018-07-21T02:22:58.938Z,3.03
2018-07-21T02:25:34.143Z,2.83
2018-07-21T02:28:09.256Z,3.00
2018-07-21T02:30:44.485Z,2.80
2018-07-21T02:33:19.668Z,2.70
2018-07-21T02:35:54.674Z,2.70
2018-07-21T02:38:29.900Z,2.70
2018-07-21T02:41:05.228Z,2.73
2018-07-21T02:43:40.256Z,3.13
2018-07-21T02:46:15.509Z,4.20
2018-07-21T02:48:50.825Z,3.40
2018-07-21T02:51:25.981Z,2.90
2018-07-21T02:54:01.205Z,2.60
2018-07-21T02:56:36.319Z,3.13
2018-07-21T02:59:11.442Z,3.07
2018-07-21T03:01:46.547Z,2.90
2018-07-21T03:04:21.568Z,2.77
2018-07-21T03:06:56.698Z,2.60
2018-07-21T03:09:31.829Z,3.17
2018-07-21T03:12:06.881Z,2.60
2018-07-21T03:14:41.932Z,3.67
2018-07-21T03:17:17.067Z,3.10
2018-07-21T03:19:52.206Z,2.70
2018-07-21T03:22:27.809Z,2.57
2018-07-21T03:25:03.081Z,3.27
2018-07-21T03:27:38.125Z,3.20
2018-07-21T03:30:13.293Z,2.87
2018-07-21T03:32:48.293Z,3.10
2018-07-21T03:35:23.275Z,4.10
2018-07-21T03:37:58.342Z,2.53
2018-07-21T03:40:33.368Z,5.90
2018-07-21T03:43:08.395Z,7.23
2018-07-21T03:45:43.550Z,7.60
2018-07-21T03:48:18.618Z,7.60
2018-07-21T03:50:53.744Z,7.40
2018-07-21T03:53:28.912Z,7.13
2018-07-21T03:56:04.099Z,7.23
2018-07-21T03:58:39.273Z,8.37
2018-07-21T04:01:14.285Z,6.70
2018-07-21T04:03:49.702Z,7.77
2018-07-21T04:06:24.846Z,8.83
2018-07-21T04:08:59.775Z,8.10
2018-07-21T04:11:34.608Z,8.60
2018-07-21T04:14:10.032Z,7.70
2018-07-21T04:16:45.090Z,6.60
2018-07-21T04:19:20.139Z,6.80
2018-07-21T04:21:55.294Z,6.60
2018-07-21T04:24:30.446Z,5.97
2018-07-21T04:27:05.441Z,7.53
2018-07-21T04:29:40.626Z,8.10
2018-07-21T04:32:16.182Z,7.93
2018-07-21T04:34:51.387Z,7.03
2018-07-21T04:37:26.234Z,6.43
2018-07-21T04:40:01.350Z,8.60
2018-07-21T04:42:36.526Z,7.27
2018-07-21T04:45:11.614Z,8.00
2018-07-21T04:47:46.727Z,7.20
2018-07-21T04:50:21.888Z,9.80
2018-07-21T04:52:56.921Z,9.27
2018-07-21T04:55:32.148Z,7.47
2018-07-21T04:58:07.299Z,8.37
2018-07-21T05:00:42.350Z,9.13
2018-07-21T05:03:17.365Z,10.00
2018-07-21T05:05:52.612Z,9.93
2018-07-21T05:08:27.909Z,10.27
2018-07-21T05:11:02.984Z,8.03
2018-07-21T05:13:38.163Z,9.17
2018-07-21T05:16:13.196Z,7.73
2018-07-21T05:18:48.298Z,10.00
2018-07-21T05:21:23.440Z,8.00
2018-07-21T05:23:58.634Z,7.07
2018-07-21T05:26:34.285Z,9.57
2018-07-21T05:29:09.295Z,9.73
2018-07-21T05:31:44.349Z,10.40
2018-07-21T05:34:19.562Z,10.40
2018-07-21T05:36:54.602Z,9.63
2018-07-21T05:39:30.511Z,9.60
2018-07-21T05:42:05.543Z,7.80
2018-07-21T05:44:40.718Z,7.03
2018-07-21T05:47:15.817Z,7.57
2018-07-21T05:49:50.807Z,9.83
2018-07-21T05:52:25.907Z,8.07
2018-07-21T05:55:01.094Z,10.73
2018-07-21T05:57:36.795Z,8.47
2018-07-21T06:00:13.211Z,8.03
2018-07-21T06:02:49.314Z,10.80
2018-07-21T06:05:24.253Z,8.10
2018-07-21T06:07:59.440Z,9.83
2018-07-21T06:10:34.427Z,7.97
2018-07-21T06:13:09.472Z,7.60
2018-07-21T06:15:44.788Z,8.50
2018-07-21T06:18:19.823Z,9.80
2018-07-21T06:20:54.982Z,9.33
2018-07-21T06:23:30.101Z,10.83
2018-07-21T06:26:05.384Z,8.33
2018-07-21T06:28:40.669Z,10.23
2018-07-21T06:31:15.812Z,11.10
2018-07-21T06:33:50.931Z,8.67
2018-07-21T06:36:26.012Z,10.33
2018-07-21T06:39:01.176Z,10.43
2018-07-21T06:41:36.191Z,10.27
2018-07-21T06:44:11.320Z,9.50
2018-07-21T06:46:46.364Z,9.50
2018-07-21T06:49:21.482Z,10.07
2018-07-21T06:51:56.552Z,10.10
2018-07-21T06:54:31.751Z,9.20
2018-07-21T06:57:06.697Z,9.83
2018-07-21T06:59:41.749Z,9.60
2018-07-21T07:02:16.745Z,8.50
2018-07-21T07:04:51.954Z,10.60
2018-07-21T07:07:27.035Z,13.17
2018-07-21T07:10:02.118Z,10.70
2018-07-21T07:12:37.257Z,9.20
2018-07-21T07:15:12.221Z,9.93
2018-07-21T07:17:47.184Z,9.87
2018-07-21T07:20:22.354Z,10.40
2018-07-21T07:22:57.389Z,9.80
2018-07-21T07:25:32.356Z,8.80
2018-07-21T07:28:07.425Z,8.80
2018-07-21T07:30:42.496Z,9.80
2018-07-21T07:33:17.524Z,9.67
2018-07-21T07:35:52.480Z,9.00
2018-07-21T07:38:27.579Z,10.00
2018-07-21T07:41:02.888Z,9.97
2018-07-21T07:43:37.892Z,10.13
2018-07-21T07:46:13.054Z,7.47
2018-07-21T07:48:48.121Z,9.67
2018-07-21T07:51:23.198Z,8.37
2018-07-21T07:53:58.538Z,9.23
2018-07-21T07:56:33.618Z,10.20
2018-07-21T07:59:08.620Z,9.10
2018-07-21T08:01:43.855Z,10.83
2018-07-21T08:04:18.894Z,11.30
2018-07-21T08:06:54.012Z,10.77
2018-07-21T08:09:29.071Z,10.20
2018-07-21T08:12:04.459Z,9.37
2018-07-21T08:14:39.523Z,9.83
2018-07-21T08:17:14.597Z,10.63
2018-07-21T08:19:49.816Z,7.10
2018-07-21T08:22:24.883Z,11.70
2018-07-21T08:24:59.931Z,11.23
2018-07-21T08:27:34.936Z,7.93
2018-07-21T08:30:11.242Z,7.23
2018-07-21T08:32:46.352Z,6.93
2018-07-21T08:35:21.492Z,8.20
2018-07-21T08:37:56.632Z,9.17
2018-07-21T08:40:31.861Z,9.93
2018-07-21T08:43:06.835Z,7.03
2018-07-21T08:45:42.088Z,8.27
2018-07-21T08:48:17.355Z,8.57
2018-07-21T08:50:52.386Z,8.33
2018-07-21T08:53:27.557Z,7.57
2018-07-21T08:56:02.661Z,10.63
2018-07-21T08:58:37.638Z,7.40
2018-07-21T09:01:12.818Z,7.10
2018-07-21T09:03:47.868Z,10.03
2018-07-21T09:06:22.942Z,7.80
2018-07-21T09:08:58.112Z,7.57
2018-07-21T09:11:33.146Z,10.73
2018-07-21T09:14:08.545Z,8.03
2018-07-21T09:16:43.534Z,10.60
2018-07-21T09:19:18.672Z,7.97
2018-07-21T09:21:53.866Z,8.50
2018-07-21T09:24:29.044Z,8.80
2018-07-21T09:27:04.253Z,10.07
2018-07-21T09:29:39.281Z,7.10
2018-07-21T09:32:14.326Z,11.80
2018-07-21T09:34:49.432Z,8.17
2018-07-21T09:37:24.545Z,6.13
2018-07-21T09:39:59.687Z,7.67
2018-07-21T09:42:34.756Z,7.83
2018-07-21T09:45:09.795Z,7.67
2018-07-21T09:47:44.999Z,8.70
2018-07-21T09:50:20.212Z,8.70
2018-07-21T09:52:55.402Z,11.17
2018-07-21T09:55:30.509Z,7.43
2018-07-21T09:58:05.492Z,11.03
2018-07-21T10:00:45.964Z,8.50
2018-07-21T10:03:21.031Z,10.13
2018-07-21T10:05:56.122Z,8.97
2018-07-21T10:08:31.437Z,10.60
2018-07-21T10:11:06.780Z,9.83
2018-07-21T10:13:42.009Z,10.23
2018-07-21T10:16:16.982Z,7.47
2018-07-21T10:18:52.181Z,11.13
2018-07-21T10:21:27.349Z,8.00
2018-07-21T10:24:07.738Z,9.27
2018-07-21T10:26:48.276Z,7.57
2018-07-21T10:29:23.252Z,9.17
2018-07-21T10:31:58.265Z,6.87
2018-07-21T10:34:33.464Z,7.10
2018-07-21T10:37:08.659Z,6.33
2018-07-21T10:39:43.774Z,7.47
2018-07-21T10:42:18.920Z,7.80
2018-07-21T10:44:54.265Z,7.20
2018-07-21T10:47:29.511Z,9.27
2018-07-21T10:50:04.618Z,9.33
2018-07-21T10:52:39.780Z,8.33
2018-07-21T10:55:15.047Z,5.93
2018-07-21T10:57:50.638Z,5.90
2018-07-21T11:00:25.862Z,6.83
2018-07-21T11:03:01.013Z,8.03
2018-07-21T11:05:36.048Z,8.27
2018-07-21T11:08:11.176Z,6.47
2018-07-21T11:10:46.293Z,7.07
2018-07-21T11:13:21.494Z,6.80
2018-07-21T11:15:56.639Z,6.53
2018-07-21T11:18:31.805Z,9.00
2018-07-21T11:21:07.351Z,8.70
2018-07-21T11:23:42.345Z,8.63
2018-07-21T11:26:17.390Z,8.37
2018-07-21T11:28:52.441Z,8.77
2018-07-21T11:31:27.640Z,9.97
2018-07-21T11:34:02.778Z,7.03
2018-07-21T11:36:37.935Z,7.93
2018-07-21T11:39:12.904Z,7.40
2018-07-21T11:41:48.029Z,6.80
2018-07-21T11:44:23.189Z,6.80
2018-07-21T11:46:58.185Z,7.13
2018-07-21T11:49:33.309Z,8.77
2018-07-21T11:52:08.480Z,8.43
2018-07-21T11:54:44.155Z,8.53
2018-07-21T11:57:19.372Z,7.83
2018-07-21T11:59:54.488Z,8.30
2018-07-21T12:02:29.473Z,8.63
2018-07-21T12:05:04.648Z,8.13
2018-07-21T12:07:39.926Z,7.37
2018-07-21T12:10:15.100Z,7.20
2018-07-21T12:12:50.188Z,6.93
2018-07-21T12:15:25.233Z,6.93
2018-07-21T12:18:00.328Z,7.57
2018-07-21T12:20:35.423Z,8.77
2018-07-21T12:23:10.508Z,8.40
2018-07-21T12:25:45.664Z,7.53
2018-07-21T12:28:20.758Z,8.30
2018-07-21T12:30:56.003Z,7.70
2018-07-21T12:33:31.055Z,9.33
2018-07-21T12:36:06.398Z,8.27
2018-07-21T12:38:41.528Z,7.70
2018-07-21T12:41:16.636Z,8.37
2018-07-21T12:43:51.831Z,8.07
2018-07-21T12:46:26.814Z,7.90
2018-07-21T12:49:02.127Z,6.60
2018-07-21T12:51:37.114Z,6.60
2018-07-21T12:54:12.255Z,8.13
2018-07-21T12:56:47.399Z,8.17
2018-07-21T12:59:22.476Z,7.77
2018-07-21T13:01:57.496Z,7.33
2018-07-21T13:04:32.541Z,7.47
2018-07-21T13:07:08.014Z,8.30
2018-07-21T13:09:43.073Z,7.83
2018-07-21T13:12:18.309Z,7.07
2018-07-21T13:14:53.587Z,7.37
2018-07-21T13:17:28.735Z,7.60
2018-07-21T13:20:03.923Z,8.67
2018-07-21T13:22:39.096Z,8.27
2018-07-21T13:25:14.275Z,7.20
2018-07-21T13:27:49.476Z,7.37
2018-07-21T13:30:24.508Z,6.90
2018-07-21T13:32:59.631Z,7.50
2018-07-21T13:35:34.851Z,8.00
2018-07-21T13:38:09.906Z,7.63
2018-07-21T13:40:44.955Z,6.07
2018-07-21T13:43:19.834Z,7.57
2018-07-21T13:45:55.015Z,6.90
2018-07-21T13:48:30.274Z,6.43
2018-07-21T13:51:11.315Z,7.20
2018-07-21T13:53:46.755Z,6.73
2018-07-21T13:56:21.770Z,7.53
2018-07-21T13:58:56.728Z,7.47
2018-07-21T14:01:32.399Z,8.00
2018-07-21T14:04:07.456Z,7.57
2018-07-21T14:06:42.660Z,6.27
2018-07-21T14:09:17.824Z,5.73
2018-07-21T14:11:53.047Z,8.30
2018-07-21T14:14:28.127Z,6.07
2018-07-21T14:17:03.171Z,7.40
2018-07-21T14:19:38.254Z,6.70
2018-07-21T14:22:13.396Z,7.60
2018-07-21T14:24:48.392Z,7.07
2018-07-21T14:27:23.510Z,7.80
2018-07-21T14:29:58.825Z,7.53
2018-07-21T14:32:33.896Z,7.40
2018-07-21T14:35:09.012Z,7.00
2018-07-21T14:37:43.838Z,7.00
2018-07-21T14:40:18.831Z,7.17
2018-07-21T14:42:53.897Z,7.10
2018-07-21T14:45:28.971Z,7.73
2018-07-21T14:48:04.008Z,7.00
2018-07-21T14:50:39.124Z,6.47
2018-07-21T14:53:14.544Z,7.57
2018-07-21T14:55:49.591Z,6.60
2018-07-21T14:58:24.563Z,7.10
2018-07-21T15:00:59.684Z,7.47
2018-07-21T15:03:34.787Z,6.60
2018-07-21T15:06:09.793Z,6.40
2018-07-21T15:08:44.924Z,6.80
2018-07-21T15:11:20.035Z,7.43
2018-07-21T15:13:54.767Z,7.47
2018-07-21T15:16:29.622Z,6.83
2018-07-21T15:19:04.588Z,7.03
2018-07-21T15:21:39.622Z,8.00
2018-07-21T15:24:14.704Z,8.23
2018-07-21T15:26:49.651Z,7.80
2018-07-21T15:29:24.692Z,7.43
2018-07-21T15:31:59.472Z,7.30
2018-07-21T15:34:34.324Z,7.37
2018-07-21T15:37:09.417Z,7.53
2018-07-21T15:39:44.791Z,7.67
2018-07-21T15:42:19.728Z,8.07
2018-07-21T15:44:54.796Z,7.80
2018-07-21T15:47:29.821Z,8.07
2018-07-21T15:50:05.076Z,8.80
2018-07-21T15:52:40.127Z,8.87
2018-07-21T15:55:15.092Z,10.50
2018-07-21T15:57:50.165Z,10.40
2018-07-21T16:00:25.328Z,13.37
2018-07-21T16:03:00.419Z,13.03
2018-07-21T16:05:35.577Z,11.57
2018-07-21T16:08:10.700Z,13.93
2018-07-21T16:10:45.745Z,12.97
2018-07-21T16:13:20.751Z,9.07
2018-07-21T16:15:55.867Z,11.73
2018-07-21T16:18:31.056Z,8.57
2018-07-21T16:21:06.077Z,14.30
2018-07-21T16:23:41.207Z,8.53
2018-07-21T16:26:16.261Z,8.00
2018-07-21T16:28:51.324Z,8.27
2018-07-21T16:31:26.555Z,12.40
2018-07-21T16:34:02.082Z,14.07
2018-07-21T16:36:37.191Z,13.20
2018-07-21T16:39:12.424Z,14.57
2018-07-21T16:41:47.380Z,13.73
2018-07-21T16:44:22.551Z,11.77
2018-07-21T16:46:57.635Z,15.70
2018-07-21T16:49:32.739Z,14.80
2018-07-21T16:52:07.804Z,14.83
2018-07-21T16:54:42.737Z,16.00
2018-07-21T16:57:17.814Z,17.90
2018-07-21T16:59:52.929Z,15.80
2018-07-21T17:02:28.044Z,15.20
2018-07-21T17:05:02.990Z,10.67
2018-07-21T17:07:38.108Z,12.93
2018-07-21T17:10:13.361Z,13.57
2018-07-21T17:12:48.500Z,11.23
2018-07-21T17:15:23.612Z,11.00
2018-07-21T17:17:58.615Z,9.43
2018-07-21T17:20:33.724Z,12.30
2018-07-21T17:23:08.912Z,9.17
2018-07-21T17:25:43.853Z,10.90
2018-07-21T17:28:18.952Z,11.60
2018-07-21T17:30:54.075Z,12.30
2018-07-21T17:33:29.096Z,10.07
2018-07-21T17:36:04.293Z,9.37
2018-07-21T17:38:39.240Z,9.30
2018-07-21T17:41:14.299Z,11.10
2018-07-21T17:43:49.363Z,8.20
2018-07-21T17:46:24.428Z,7.23
2018-07-21T17:48:59.523Z,7.27
2018-07-21T17:51:35.037Z,7.20
2018-07-21T17:54:10.012Z,6.93
2018-07-21T17:56:45.128Z,7.07
2018-07-21T17:59:20.312Z,6.57
2018-07-21T18:01:55.508Z,6.37
2018-07-21T18:04:30.668Z,7.47
2018-07-21T18:07:05.643Z,7.00
2018-07-21T18:09:40.792Z,6.73
2018-07-21T18:12:15.931Z,7.03
2018-07-21T18:14:50.895Z,7.27
2018-07-21T18:17:26.147Z,6.33
2018-07-21T18:20:01.350Z,11.27
2018-07-21T18:22:36.408Z,6.53
2018-07-21T18:25:11.551Z,12.93
2018-07-21T18:27:46.667Z,14.90
2018-07-21T18:30:21.671Z,15.23
2018-07-21T18:32:56.893Z,13.30
2018-07-21T18:35:31.848Z,7.53
2018-07-21T18:38:07.096Z,7.37
2018-07-21T18:40:42.056Z,6.43
2018-07-21T18:43:17.276Z,6.80
2018-07-21T18:45:52.464Z,6.40
2018-07-21T18:48:37.861Z,6.40
2018-07-21T18:51:12.847Z,10.00
2018-07-21T18:53:47.783Z,6.70
2018-07-21T18:56:22.849Z,6.73
2018-07-21T18:58:57.820Z,6.47
2018-07-21T19:01:32.980Z,6.33
2018-07-21T19:04:08.413Z,6.17
2018-07-21T19:06:43.580Z,5.97
2018-07-21T19:09:18.591Z,11.77
2018-07-21T19:11:59.207Z,8.43
2018-07-21T19:14:34.028Z,6.27
2018-07-21T19:17:08.853Z,9.23
2018-07-21T19:19:49.215Z,8.80
2018-07-21T19:22:24.119Z,7.57
2018-07-21T19:25:03.272Z,7.03
2018-07-21T19:27:38.424Z,10.77
2018-07-21T19:30:13.549Z,6.90
2018-07-21T19:32:54.093Z,8.77
2018-07-21T19:35:30.539Z,7.40
2018-07-21T19:38:05.696Z,7.30
2018-07-21T19:40:40.856Z,7.80
2018-07-21T19:43:15.890Z,7.87
2018-07-21T19:45:50.946Z,7.37
2018-07-21T19:48:26.092Z,8.03
2018-07-21T19:51:01.250Z,8.17
2018-07-21T19:53:36.333Z,7.83
2018-07-21T19:56:11.309Z,10.83
2018-07-21T19:58:46.520Z,7.90
2018-07-21T20:01:21.462Z,9.07
2018-07-21T20:03:56.595Z,9.20
2018-07-21T20:06:31.522Z,8.20
2018-07-21T20:09:07.420Z,8.43
2018-07-21T20:11:42.464Z,7.20
2018-07-21T20:14:17.622Z,7.87
2018-07-21T20:16:52.647Z,7.53
2018-07-21T20:19:27.816Z,7.47
2018-07-21T20:22:02.972Z,7.20
2018-07-21T20:24:38.304Z,7.07
2018-07-21T20:27:13.447Z,7.13
2018-07-21T20:29:48.572Z,7.43
2018-07-21T20:32:23.752Z,7.43
2018-07-21T20:34:58.888Z,6.83
2018-07-21T20:37:34.023Z,6.93
2018-07-21T20:40:09.216Z,6.67
2018-07-21T20:42:44.147Z,7.17
2018-07-21T20:45:19.248Z,6.80
2018-07-21T20:47:54.384Z,7.63
2018-07-21T20:50:29.453Z,7.13
2018-07-21T20:53:04.500Z,7.17
2018-07-21T20:55:39.624Z,7.10
2018-07-21T20:58:14.736Z,6.70
2018-07-21T21:00:49.663Z,7.17
2018-07-21T21:03:24.655Z,7.07
2018-07-21T21:05:59.823Z,6.90
2018-07-21T21:08:35.048Z,6.50
2018-07-21T21:11:10.180Z,6.53
2018-07-21T21:13:45.119Z,6.80
2018-07-21T21:16:20.599Z,6.50
2018-07-21T21:18:55.661Z,6.57
2018-07-21T21:21:30.592Z,6.53
2018-07-21T21:24:05.579Z,6.50
2018-07-21T21:26:40.608Z,6.10
2018-07-21T21:29:15.720Z,6.13
2018-07-21T21:31:50.684Z,5.80
2018-07-21T21:34:25.643Z,7.00
2018-07-21T21:37:00.727Z,7.17
2018-07-21T21:39:35.880Z,6.43
2018-07-21T21:42:10.931Z,6.80
2018-07-21T21:44:46.064Z,6.70
2018-07-21T21:47:20.967Z,6.33
2018-07-21T21:49:55.922Z,6.67
2018-07-21T21:52:30.879Z,6.00
2018-07-21T21:55:06.229Z,6.30
2018-07-21T21:57:41.182Z,6.63
2018-07-21T22:00:16.215Z,6.60
2018-07-21T22:02:52.271Z,6.93
2018-07-21T22:05:27.172Z,6.73
2018-07-21T22:08:02.252Z,6.67
2018-07-21T22:10:37.184Z,6.70
2018-07-21T22:13:12.356Z,6.17
2018-07-21T22:15:47.447Z,7.07
2018-07-21T22:18:22.785Z,6.13
2018-07-21T22:20:57.867Z,6.63
2018-07-21T22:23:32.964Z,6.47
2018-07-21T22:26:07.968Z,5.90
2018-07-21T22:28:43.283Z,5.50
2018-07-21T22:31:18.352Z,6.07
2018-07-21T22:33:53.423Z,5.57
2018-07-21T22:36:28.560Z,6.33
2018-07-21T22:39:04.485Z,6.30
2018-07-21T22:41:39.614Z,6.10
2018-07-21T22:44:14.755Z,5.80
2018-07-21T22:46:49.648Z,5.87
2018-07-21T22:49:24.749Z,5.70
2018-07-21T22:51:59.688Z,5.87
2018-07-21T22:54:34.712Z,5.80
2018-07-21T22:57:09.799Z,5.70
2018-07-21T22:59:44.596Z,6.10
2018-07-21T23:02:19.652Z,5.57
2018-07-21T23:04:54.632Z,6.03
2018-07-21T23:07:29.624Z,5.77
2018-07-21T23:10:05.146Z,6.00
2018-07-21T23:12:40.197Z,5.90
2018-07-21T23:15:15.152Z,5.90
2018-07-21T23:17:50.187Z,6.20
2018-07-21T23:20:25.247Z,5.73
2018-07-21T23:23:00.383Z,6.03
2018-07-21T23:25:35.438Z,5.93
2018-07-21T23:28:10.535Z,5.97
2018-07-21T23:30:45.573Z,6.33
2018-07-21T23:33:20.580Z,5.63
2018-07-21T23:35:55.631Z,5.77
2018-07-21T23:38:30.647Z,5.90
2018-07-21T23:41:05.784Z,5.43
2018-07-21T23:43:40.972Z,5.57
2018-07-21T23:46:16.015Z,5.37
2018-07-21T23:48:50.992Z,5.63
2018-07-21T23:51:26.076Z,5.43
2018-07-21T23:54:01.049Z,5.43
2018-07-21T23:56:36.028Z,5.63
2018-07-21T23:59:11.064Z,5.27
